Time;durP1;ratioP1;P1;durP2;ratioP2;P2;SDS_P1;SDS_P2;PMS_P1;PMS_P2;Temp;Humidity;BMP_temperature;BMP_pressure;BME280_temperature;BME280_humidity;BME280_pressure;Samples;Min_cycle;Max_cycle;Signal;HPM_P1;HPM_P2
2021/10/25 00:01:12;;;;;;;18.70;16.97;;;6.90;99.90;;;;;;5052149;28;20460;-72
2021/10/25 00:03:39;;;;;;;17.07;15.77;;;7.00;99.90;;;;;;5052247;28;20509;-73
2021/10/25 00:06:06;;;;;;;17.03;15.53;;;7.00;99.90;;;;;;5052038;28;20487;-73
2021/10/25 00:08:34;;;;;;;16.70;15.30;;;6.90;99.90;;;;;;5051786;28;20941;-73
2021/10/25 00:11:01;;;;;;;16.73;15.13;;;6.90;99.90;;;;;;5051483;28;20521;-70
2021/10/25 00:13:28;;;;;;;14.40;13.00;;;6.90;99.90;;;;;;5052089;28;20487;-72
2021/10/25 00:15:55;;;;;;;15.67;14.60;;;6.90;99.90;;;;;;5051763;28;21096;-73
2021/10/25 00:18:21;;;;;;;16.53;15.33;;;6.90;99.90;;;;;;5051705;28;20815;-73
2021/10/25 00:20:48;;;;;;;17.23;16.03;;;6.90;99.90;;;;;;5051724;28;20474;-73
2021/10/25 00:23:15;;;;;;;15.97;14.57;;;6.90;99.90;;;;;;5032932;28;20445;-72
2021/10/25 00:25:43;;;;;;;18.23;16.90;;;6.90;99.90;;;;;;5031966;28;20491;-73
2021/10/25 00:28:10;;;;;;;17.30;15.80;;;6.90;99.90;;;;;;5031680;28;20447;-72
2021/10/25 00:30:36;;;;;;;16.50;15.20;;;6.80;99.90;;;;;;5031308;28;20982;-72
2021/10/25 00:33:03;;;;;;;16.00;14.80;;;6.80;99.90;;;;;;5032587;28;20453;-72
2021/10/25 00:35:30;;;;;;;17.03;15.57;;;6.80;99.90;;;;;;5051678;28;20440;-73
2021/10/25 00:37:57;;;;;;;16.37;15.03;;;6.80;99.90;;;;;;5051287;28;20449;-73
2021/10/25 00:40:24;;;;;;;15.37;14.27;;;6.80;99.90;;;;;;5051442;28;20467;-73
2021/10/25 00:42:52;;;;;;;17.37;15.47;;;6.80;99.90;;;;;;5051479;28;20448;-72
2021/10/25 00:45:18;;;;;;;15.90;14.57;;;6.80;99.90;;;;;;5051269;28;20455;-72
2021/10/25 00:47:45;;;;;;;17.00;15.63;;;6.80;99.90;;;;;;5051279;28;20455;-72
2021/10/25 00:50:12;;;;;;;15.97;14.70;;;6.70;99.90;;;;;;5051390;28;20476;-73
2021/10/25 00:52:39;;;;;;;17.77;16.23;;;6.70;99.90;;;;;;5051502;28;20459;-73
2021/10/25 00:55:08;;;;;;;16.10;14.73;;;6.70;99.90;;;;;;5051704;28;20455;-73
2021/10/25 00:57:35;;;;;;;17.77;16.00;;;6.70;99.90;;;;;;5051411;28;20447;-73
2021/10/25 01:00:05;;;;;;;16.63;15.30;;;6.70;99.90;;;;;;5051486;28;20503;-73
2021/10/25 01:02:32;;;;;;;16.50;15.30;;;6.70;99.90;;;;;;5052043;28;20444;-70
2021/10/25 01:04:59;;;;;;;18.00;16.60;;;6.60;99.90;;;;;;5051610;28;20435;-70
2021/10/25 01:07:26;;;;;;;16.93;15.50;;;6.60;99.90;;;;;;5051724;28;20476;-72
2021/10/25 01:09:54;;;;;;;17.00;15.40;;;6.60;99.90;;;;;;5050843;28;20471;-72
2021/10/25 01:12:21;;;;;;;17.33;16.00;;;6.60;99.90;;;;;;5051425;28;20550;-72
2021/10/25 01:14:48;;;;;;;17.30;15.90;;;6.60;99.90;;;;;;5051760;28;20452;-72
2021/10/25 01:17:16;;;;;;;17.93;16.33;;;6.60;99.90;;;;;;5051569;28;20443;-72
2021/10/25 01:19:43;;;;;;;16.07;14.87;;;6.60;99.90;;;;;;5051119;28;20530;-72
2021/10/25 01:22:11;;;;;;;15.30;14.20;;;6.60;99.90;;;;;;5040117;28;20468;-72
2021/10/25 01:24:38;;;;;;;20.43;14.90;;;6.60;99.90;;;;;;5031389;28;20460;-72
2021/10/25 01:27:05;;;;;;;17.23;15.83;;;6.50;99.90;;;;;;5031298;28;21028;-72
2021/10/25 01:29:31;;;;;;;15.30;14.07;;;6.60;99.90;;;;;;5031028;28;20461;-72
2021/10/25 01:31:58;;;;;;;17.40;15.90;;;6.50;99.90;;;;;;5031327;28;20452;-72
2021/10/25 01:34:25;;;;;;;18.30;16.90;;;6.50;99.90;;;;;;5046328;28;20452;-72
2021/10/25 01:36:51;;;;;;;16.47;15.17;;;6.50;99.90;;;;;;5051083;28;20459;-73
2021/10/25 01:39:20;;;;;;;15.80;14.50;;;6.50;99.90;;;;;;5050914;28;20447;-73
2021/10/25 01:41:47;;;;;;;15.70;14.40;;;6.50;99.90;;;;;;5051258;28;20535;-73
2021/10/25 01:44:14;;;;;;;18.13;16.70;;;6.50;99.90;;;;;;5053689;28;20451;-73
2021/10/25 01:46:42;;;;;;;17.10;15.70;;;6.50;99.90;;;;;;5055059;28;20480;-72
2021/10/25 01:49:09;;;;;;;17.87;16.33;;;6.50;99.90;;;;;;5054453;28;20447;-71
2021/10/25 01:51:36;;;;;;;16.17;14.83;;;6.50;99.90;;;;;;5054468;28;20960;-73
2021/10/25 01:54:03;;;;;;;15.77;14.60;;;6.40;99.90;;;;;;5054695;28;20444;-70
2021/10/25 01:56:32;;;;;;;17.17;15.87;;;6.40;99.90;;;;;;5054745;28;20452;-73
2021/10/25 01:58:58;;;;;;;16.70;15.17;;;6.40;99.90;;;;;;5054404;28;20490;-71
2021/10/25 02:01:25;;;;;;;16.07;14.87;;;6.40;99.90;;;;;;5054355;28;20507;-73
2021/10/25 02:03:52;;;;;;;17.10;15.80;;;6.40;99.90;;;;;;5054589;28;21012;-73
2021/10/25 02:06:20;;;;;;;17.53;16.10;;;6.40;99.90;;;;;;5054417;28;20486;-71
2021/10/25 02:08:47;;;;;;;16.73;15.10;;;6.40;99.90;;;;;;5053820;28;20490;-72
2021/10/25 02:11:14;;;;;;;17.00;15.80;;;6.30;99.90;;;;;;5054219;28;20475;-70
2021/10/25 02:13:43;;;;;;;18.47;16.77;;;6.30;99.90;;;;;;5054111;28;20453;-73
2021/10/25 02:16:10;;;;;;;17.37;16.07;;;6.30;99.90;;;;;;5054309;28;20546;-72
2021/10/25 02:18:37;;;;;;;18.13;16.70;;;6.30;99.90;;;;;;5053912;28;20876;-72
2021/10/25 02:21:04;;;;;;;18.07;16.70;;;6.30;99.90;;;;;;5054126;28;20941;-73
2021/10/25 02:23:31;;;;;;;15.73;14.63;;;6.30;99.90;;;;;;5054227;28;20455;-70
2021/10/25 02:25:57;;;;;;;16.63;15.20;;;6.30;99.90;;;;;;5036704;28;20445;-73
2021/10/25 02:28:24;;;;;;;17.30;15.90;;;6.20;99.90;;;;;;5034223;28;20440;-73
2021/10/25 02:30:53;;;;;;;16.40;15.00;;;6.30;99.90;;;;;;5034074;28;20480;-72
2021/10/25 02:33:20;;;;;;;16.73;15.53;;;6.20;99.90;;;;;;5034071;28;20942;-72
2021/10/25 02:35:47;;;;;;;16.57;15.37;;;6.20;99.90;;;;;;5034004;28;20449;-73
2021/10/25 02:38:14;;;;;;;16.40;15.20;;;6.20;99.90;;;;;;5052216;28;20448;-73
2021/10/25 02:40:41;;;;;;;17.30;16.00;;;6.20;99.90;;;;;;5053704;28;20464;-73
2021/10/25 02:43:09;;;;;;;18.43;16.70;;;6.20;99.90;;;;;;5053826;28;20502;-72
2021/10/25 02:45:36;;;;;;;16.70;15.23;;;6.20;99.90;;;;;;5053682;28;20476;-72
2021/10/25 02:48:05;;;;;;;16.67;15.13;;;6.20;99.90;;;;;;5053658;28;20487;-72
2021/10/25 02:50:32;;;;;;;15.93;14.53;;;6.20;99.90;;;;;;5053543;28;20472;-72
2021/10/25 02:52:59;;;;;;;16.50;15.37;;;6.20;99.90;;;;;;5053640;28;20459;-72
2021/10/25 02:55:25;;;;;;;17.27;15.97;;;6.20;99.90;;;;;;5053074;28;20452;-72
2021/10/25 02:57:52;;;;;;;16.00;14.73;;;6.20;99.90;;;;;;5053459;28;20444;-73
2021/10/25 03:00:19;;;;;;;18.07;16.53;;;6.20;99.90;;;;;;5053650;28;20474;-73
2021/10/25 03:02:46;;;;;;;18.93;17.40;;;6.20;99.90;;;;;;5053567;28;20459;-72
2021/10/25 03:05:14;;;;;;;16.73;15.63;;;6.20;99.90;;;;;;5053619;28;20926;-73
2021/10/25 03:07:41;;;;;;;19.63;18.00;;;6.20;99.90;;;;;;5044049;28;20481;-73
2021/10/25 03:10:09;;;;;;;17.40;16.07;;;6.10;99.90;;;;;;5033291;28;20467;-73
2021/10/25 03:12:36;;;;;;;17.43;16.07;;;6.10;99.90;;;;;;5033783;28;20441;-72
2021/10/25 03:15:04;;;;;;;19.20;17.40;;;6.10;99.90;;;;;;5033588;28;20452;-72
2021/10/25 03:17:30;;;;;;;18.80;17.23;;;6.10;99.90;;;;;;5033532;28;20487;-73
2021/10/25 03:19:57;;;;;;;19.00;17.40;;;6.10;99.90;;;;;;5044484;28;20468;-73
2021/10/25 03:22:25;;;;;;;19.93;18.13;;;6.10;99.90;;;;;;5053018;28;20451;-73
2021/10/25 03:24:53;;;;;;;19.20;17.60;;;6.10;99.90;;;;;;5053190;28;20450;-71
2021/10/25 03:27:19;;;;;;;18.10;16.50;;;6.10;99.90;;;;;;5053080;28;20480;-71
2021/10/25 03:29:46;;;;;;;18.63;17.00;;;6.10;99.90;;;;;;5053025;28;21133;-71
2021/10/25 03:32:13;;;;;;;17.40;15.90;;;6.10;99.90;;;;;;5052734;28;20452;-71
2021/10/25 03:34:40;;;;;;;20.63;18.73;;;6.10;99.90;;;;;;5052835;28;20453;-71
2021/10/25 03:37:08;;;;;;;18.07;16.60;;;6.10;99.90;;;;;;5053003;28;20451;-71
2021/10/25 03:39:38;;;;;;;20.47;18.60;;;6.10;99.90;;;;;;5052587;28;20460;-71
2021/10/25 03:42:10;;;;;;;18.60;17.00;;;6.10;99.90;;;;;;5052944;28;20459;-71
2021/10/25 03:44:42;;;;;;;17.90;16.60;;;6.10;99.90;;;;;;5039606;28;20538;-71
2021/10/25 03:47:14;;;;;;;18.00;16.70;;;6.10;99.90;;;;;;5032801;28;20919;-71
2021/10/25 03:49:45;;;;;;;19.33;17.80;;;6.10;99.90;;;;;;5032265;28;20477;-71
2021/10/25 03:52:18;;;;;;;18.50;17.07;;;6.10;99.90;;;;;;5039153;28;20460;-71
2021/10/25 03:54:48;;;;;;;21.43;18.07;;;6.00;99.90;;;;;;5052655;28;20922;-72
2021/10/25 04:03:10;;;;;;;18.07;16.67;;;6.00;99.90;;;;;;5030207;28;20484;-71
2021/10/25 04:25:36;;;;;;;18.47;17.17;;;6.00;99.90;;;;;;5052021;28;20478;-71
2021/10/25 04:28:07;;;;;;;18.13;16.87;;;6.00;99.90;;;;;;5031928;28;20658;-71
2021/10/25 04:30:35;;;;;;;17.90;16.50;;;5.90;99.90;;;;;;5032012;28;20554;-71
2021/10/25 04:33:02;;;;;;;18.47;17.00;;;6.00;99.90;;;;;;5032013;28;20457;-71
2021/10/25 04:35:31;;;;;;;18.50;16.77;;;5.90;99.90;;;;;;5032012;28;20456;-71
2021/10/25 04:37:58;;;;;;;19.40;17.73;;;5.90;99.90;;;;;;5033795;28;20877;-70
2021/10/25 04:40:26;;;;;;;18.07;16.87;;;5.90;99.90;;;;;;5051989;28;20464;-71
2021/10/25 04:42:53;;;;;;;18.77;17.37;;;5.90;99.90;;;;;;5051714;28;20460;-71
2021/10/25 04:45:21;;;;;;;16.97;15.70;;;5.90;99.90;;;;;;5051775;28;20451;-71
2021/10/25 04:47:50;;;;;;;17.70;16.50;;;5.90;99.90;;;;;;5051518;28;20491;-71
2021/10/25 04:50:17;;;;;;;16.70;15.60;;;5.90;99.90;;;;;;5051042;28;20476;-71
2021/10/25 04:52:43;;;;;;;18.57;17.33;;;5.90;99.90;;;;;;5046366;28;21002;-70
2021/10/25 04:55:10;;;;;;;18.90;17.30;;;5.80;99.90;;;;;;5031774;28;20449;-71
2021/10/25 04:57:37;;;;;;;18.20;17.00;;;5.80;99.90;;;;;;5031812;28;20457;-71
2021/10/25 05:00:06;;;;;;;17.67;16.43;;;5.80;99.90;;;;;;5031340;28;20488;-71
2021/10/25 05:02:34;;;;;;;19.17;17.80;;;5.80;99.90;;;;;;5039893;28;20460;-71
2021/10/25 05:05:02;;;;;;;19.83;17.90;;;5.80;99.90;;;;;;5051719;28;20447;-69
2021/10/25 05:07:29;;;;;;;18.77;17.47;;;5.80;99.90;;;;;;5050992;28;20484;-69
2021/10/25 05:09:57;;;;;;;18.90;17.33;;;5.80;99.90;;;;;;5051022;28;20472;-69
2021/10/25 05:12:23;;;;;;;19.57;17.70;;;5.80;99.90;;;;;;5051560;28;20456;-70
2021/10/25 05:14:50;;;;;;;17.87;16.50;;;5.80;99.90;;;;;;5042014;28;20446;-70
2021/10/25 05:17:18;;;;;;;18.10;16.77;;;5.80;99.90;;;;;;5035298;28;20455;-70
2021/10/25 05:19:46;;;;;;;18.27;16.87;;;5.80;99.90;;;;;;5043624;28;20476;-74
2021/10/25 05:22:13;;;;;;;17.60;16.20;;;5.80;99.90;;;;;;5043592;28;20452;-75
2021/10/25 05:24:42;;;;;;;17.77;16.40;;;5.80;99.90;;;;;;5043711;28;20953;-71
2021/10/25 05:27:09;;;;;;;18.47;17.03;;;5.80;99.90;;;;;;5029666;28;20485;-71
2021/10/25 05:29:35;;;;;;;17.97;16.40;;;5.80;99.90;;;;;;5023531;28;20476;-72
2021/10/25 05:32:03;;;;;;;17.40;15.80;;;5.80;99.90;;;;;;5023726;28;20449;-76
2021/10/25 05:34:32;;;;;;;18.37;16.87;;;5.80;99.90;;;;;;5023821;28;20449;-72
2021/10/25 05:37:01;;;;;;;18.23;16.87;;;5.80;99.90;;;;;;5023890;28;20441;-76
2021/10/25 05:39:28;;;;;;;19.30;17.70;;;5.80;99.90;;;;;;5023559;28;20992;-73
2021/10/25 05:41:55;;;;;;;17.70;16.53;;;5.80;99.90;;;;;;5023402;28;20460;-71
2021/10/25 05:44:22;;;;;;;17.53;16.23;;;5.80;99.90;;;;;;5023662;28;20522;-71
2021/10/25 05:46:49;;;;;;;17.63;16.43;;;5.80;99.90;;;;;;5023631;28;20449;-72
2021/10/25 05:49:15;;;;;;;18.17;16.47;;;5.80;99.90;;;;;;5023219;28;20456;-73
2021/10/25 05:51:42;;;;;;;18.23;17.00;;;5.80;99.90;;;;;;5066862;22;20914;-66
2021/10/25 05:54:10;;;;;;;16.90;15.60;;;5.90;99.90;;;;;;5059081;28;20682;-67
2021/10/25 05:56:37;;;;;;;17.13;15.67;;;5.80;99.90;;;;;;5067948;28;20465;-66
2021/10/25 05:59:04;;;;;;;18.97;17.27;;;5.80;99.90;;;;;;5068236;28;21193;-66
2021/10/25 06:01:38;;;;;;;18.70;17.40;;;5.80;99.90;;;;;;5069801;28;20506;-66
2021/10/25 06:04:06;;;;;;;18.47;16.93;;;5.80;99.90;;;;;;5070524;28;20455;-66
2021/10/25 06:06:33;;;;;;;18.30;16.90;;;5.80;99.90;;;;;;5065753;28;20509;-66
2021/10/25 06:09:00;;;;;;;17.57;16.47;;;5.80;99.90;;;;;;5057284;28;20511;-66
2021/10/25 06:11:29;;;;;;;19.47;17.73;;;5.80;99.90;;;;;;5045557;28;20597;-67
2021/10/25 06:14:00;;;;;;;18.77;17.33;;;5.80;99.90;;;;;;5044968;28;20452;-66
2021/10/25 06:16:36;;;;;;;18.00;16.57;;;5.80;99.90;;;;;;5046563;28;21047;-65
2021/10/25 06:19:03;;;;;;;17.13;15.70;;;5.80;99.90;;;;;;5045905;28;20448;-66
2021/10/25 06:21:30;;;;;;;19.00;17.60;;;5.80;99.90;;;;;;5058391;28;20471;-66
2021/10/25 06:23:59;;;;;;;18.50;17.00;;;5.80;99.90;;;;;;5065829;28;20451;-65
2021/10/25 06:26:28;;;;;;;18.67;17.40;;;5.80;99.90;;;;;;5065763;28;21257;-66
2021/10/25 06:28:55;;;;;;;19.00;17.50;;;5.70;99.90;;;;;;5064803;28;20820;-65
2021/10/25 06:31:22;;;;;;;18.53;17.23;;;5.80;99.90;;;;;;5066844;28;20475;-66
2021/10/25 06:33:49;;;;;;;18.90;17.30;;;5.70;99.90;;;;;;5052687;28;20564;-67
2021/10/25 06:36:18;;;;;;;18.60;17.10;;;5.70;99.90;;;;;;5050688;28;20444;-65
2021/10/25 06:38:52;;;;;;;19.70;18.10;;;5.70;99.90;;;;;;5051295;28;20444;-65
2021/10/25 06:41:20;;;;;;;17.37;16.17;;;5.80;99.90;;;;;;5062236;28;20467;-66
2021/10/25 06:43:49;;;;;;;19.63;18.13;;;5.80;99.90;;;;;;5056133;28;21331;-66
2021/10/25 06:46:17;;;;;;;18.70;17.50;;;5.80;99.90;;;;;;5041379;28;20613;-65
2021/10/25 06:48:44;;;;;;;20.70;19.20;;;5.80;99.90;;;;;;5064464;28;20490;-66
2021/10/25 06:51:11;;;;;;;18.20;16.70;;;5.80;99.90;;;;;;5064955;28;20463;-66
2021/10/25 06:53:38;;;;;;;19.53;18.13;;;5.90;99.90;;;;;;5062256;28;20451;-66
2021/10/25 06:56:05;;;;;;;20.50;18.93;;;5.90;99.90;;;;;;5065260;28;20474;-66
2021/10/25 06:58:32;;;;;;;18.70;17.40;;;6.00;99.90;;;;;;5066404;28;21011;-67
2021/10/25 07:01:01;;;;;;;20.00;18.50;;;6.00;99.90;;;;;;5067362;28;20520;-66
2021/10/25 07:03:28;;;;;;;19.50;17.93;;;6.00;99.90;;;;;;5064609;28;20487;-65
2021/10/25 07:05:55;;;;;;;18.53;17.13;;;6.10;99.90;;;;;;5064596;28;20451;-66
2021/10/25 07:08:22;;;;;;;19.73;18.17;;;6.10;99.90;;;;;;5065410;28;20491;-67
2021/10/25 07:10:49;;;;;;;18.93;17.40;;;6.20;99.90;;;;;;5061365;28;20452;-66
2021/10/25 07:13:16;;;;;;;19.50;18.07;;;6.30;99.90;;;;;;5046668;28;20459;-63
2021/10/25 07:15:47;;;;;;;20.07;18.67;;;6.20;99.90;;;;;;5047132;28;20478;-66
2021/10/25 07:18:20;;;;;;;20.27;18.80;;;6.30;99.90;;;;;;5046500;28;20567;-66
2021/10/25 07:23:53;;;;;;;19.33;17.93;;;6.30;99.90;;;;;;5045810;28;20501;-67
2021/10/25 07:26:50;;;;;;;19.83;18.27;;;6.40;99.90;;;;;;5046288;28;20953;-65
2021/10/25 07:59:56;;;;;;;19.50;17.93;;;7.60;99.90;;;;;;5048406;28;20459;-64
2021/10/25 08:05:33;;;;;;;19.80;18.20;;;7.90;99.90;;;;;;5051459;28;20461;-66
2021/10/25 08:08:08;;;;;;;19.87;18.47;;;8.00;99.90;;;;;;5065280;28;20483;-66
2021/10/25 08:10:39;;;;;;;20.40;18.80;;;8.10;99.90;;;;;;5064218;28;20462;-67
2021/10/25 08:13:12;;;;;;;19.03;17.73;;;8.20;99.90;;;;;;5061573;28;20478;-67
2021/10/25 08:15:42;;;;;;;21.57;20.07;;;8.20;99.90;;;;;;5050531;28;20561;-64
2021/10/25 08:18:20;;;;;;;19.70;18.30;;;8.30;99.90;;;;;;5040537;28;20455;-65
2021/10/25 08:20:47;;;;;;;20.07;18.60;;;8.50;99.90;;;;;;5040573;28;20563;-65
2021/10/25 08:23:16;;;;;;;17.93;16.83;;;8.60;99.90;;;;;;5040396;28;20479;-64
2021/10/25 08:25:42;;;;;;;20.37;18.87;;;8.70;99.90;;;;;;5040539;28;20527;-64
2021/10/25 08:28:10;;;;;;;21.00;19.40;;;8.80;99.90;;;;;;5054913;28;20487;-64
2021/10/25 08:30:38;;;;;;;20.60;18.50;;;8.80;99.90;;;;;;5060334;28;20556;-65
2021/10/25 08:33:26;;;;;;;23.20;21.33;;;8.90;99.90;;;;;;5060154;28;20960;-64
2021/10/25 08:35:58;;;;;;;19.90;18.70;;;9.00;99.90;;;;;;5060385;28;21241;-64
2021/10/25 08:41:12;;;;;;;20.43;19.13;;;9.30;99.90;;;;;;5022493;28;20448;-64
2021/10/25 08:43:40;;;;;;;21.07;19.47;;;9.40;99.90;;;;;;5020939;28;20467;-66
2021/10/25 08:46:08;;;;;;;21.27;19.77;;;9.40;99.90;;;;;;5020981;28;20449;-64
2021/10/25 08:48:35;;;;;;;20.60;19.40;;;9.60;99.90;;;;;;5020241;28;20583;-66
2021/10/25 08:51:02;;;;;;;19.77;18.33;;;9.70;99.90;;;;;;5024615;28;20453;-65
2021/10/25 08:53:30;;;;;;;21.93;20.33;;;9.80;99.90;;;;;;5060417;28;20633;-65
2021/10/25 08:55:57;;;;;;;22.03;20.53;;;9.90;99.90;;;;;;5060629;28;20447;-65
2021/10/25 08:58:24;;;;;;;20.13;18.90;;;10.10;99.90;;;;;;5060485;28;20447;-64
2021/10/25 09:00:52;;;;;;;19.40;18.20;;;10.20;99.90;;;;;;5060471;28;20459;-64
2021/10/25 09:03:21;;;;;;;21.67;20.27;;;10.30;99.90;;;;;;5059147;28;20451;-63
2021/10/25 09:05:56;;;;;;;20.57;19.20;;;10.40;99.90;;;;;;5064544;28;20812;-63
2021/10/25 09:08:23;;;;;;;20.00;18.63;;;10.40;99.90;;;;;;5071509;28;20482;-65
2021/10/25 09:10:52;;;;;;;19.40;18.27;;;10.60;99.90;;;;;;5071727;28;20440;-63
2021/10/25 09:13:20;;;;;;;20.47;19.27;;;10.80;99.90;;;;;;5071890;28;20443;-63
2021/10/25 09:15:50;;;;;;;20.37;18.90;;;10.80;99.90;;;;;;5071603;28;20448;-65
2021/10/25 09:18:19;;;;;;;20.77;19.60;;;11.00;99.90;;;;;;5071782;28;20447;-65
2021/10/25 09:20:48;;;;;;;21.00;19.80;;;11.20;99.90;;;;;;5071899;28;20447;-63
2021/10/25 09:23:17;;;;;;;20.47;18.77;;;11.40;99.90;;;;;;5071834;28;20538;-64
2021/10/25 09:25:45;;;;;;;19.40;18.30;;;11.50;99.90;;;;;;5071502;28;20783;-63
2021/10/25 09:28:20;;;;;;;19.60;18.60;;;11.70;99.90;;;;;;5071217;28;20478;-64
2021/10/25 09:30:50;;;;;;;20.40;19.40;;;11.90;99.90;;;;;;5071597;28;20446;-65
2021/10/25 09:33:21;;;;;;;21.20;20.00;;;12.00;99.90;;;;;;5071438;28;20440;-63
2021/10/25 09:35:55;;;;;;;22.37;20.97;;;12.20;99.90;;;;;;5071464;28;20447;-64
2021/10/25 09:38:28;;;;;;;21.03;19.80;;;12.40;99.90;;;;;;5071601;28;20538;-65
2021/10/25 09:41:29;;;;;;;21.70;20.50;;;12.60;99.90;;;;;;5071693;28;20438;-64
2021/10/25 09:49:31;;;;;;;21.03;19.80;;;13.10;99.90;;;;;;5071458;28;20495;-64
2021/10/25 09:51:59;;;;;;;22.73;21.50;;;13.40;99.90;;;;;;5071210;28;20471;-65
2021/10/25 09:54:28;;;;;;;22.30;21.10;;;13.70;99.90;;;;;;5071573;28;20439;-64
2021/10/25 09:57:04;;;;;;;22.37;21.17;;;14.30;99.90;;;;;;5071679;28;20443;-65
2021/10/25 09:59:35;;;;;;;23.40;22.00;;;15.00;99.90;;;;;;5071498;28;20440;-65
2021/10/25 10:02:04;;;;;;;23.10;21.60;;;15.70;99.90;;;;;;5071976;28;20463;-65
2021/10/25 10:04:33;;;;;;;24.23;23.03;;;16.40;99.90;;;;;;5082057;28;20435;-64
2021/10/25 10:06:59;;;;;;;23.00;21.60;;;16.80;99.90;;;;;;5078614;28;20504;-62
2021/10/25 10:09:29;;;;;;;24.30;23.00;;;17.00;99.90;;;;;;5075670;28;20501;-63
2021/10/25 10:11:57;;;;;;;23.17;21.97;;;17.10;99.00;;;;;;5079580;28;20485;-63
2021/10/25 10:14:25;;;;;;;22.63;21.63;;;17.20;98.20;;;;;;5078614;28;20811;-64
2021/10/25 10:16:54;;;;;;;23.67;22.47;;;17.10;97.20;;;;;;5076671;28;20939;-62
2021/10/25 10:19:24;;;;;;;22.30;21.30;;;17.00;96.00;;;;;;5075077;28;20435;-62
2021/10/25 10:21:56;;;;;;;23.73;22.63;;;17.00;96.20;;;;;;5074917;28;20467;-62
2021/10/25 10:24:30;;;;;;;23.57;22.47;;;17.40;95.20;;;;;;5074845;28;20444;-64
2021/10/25 10:26:59;;;;;;;22.67;21.67;;;17.60;94.10;;;;;;5075545;28;20434;-63
2021/10/25 10:29:35;;;;;;;23.70;22.60;;;17.70;93.60;;;;;;5077713;28;20231;-63
2021/10/25 10:32:05;;;;;;;23.27;22.27;;;17.70;93.90;;;;;;5076863;28;21140;-64
2021/10/25 10:34:39;;;;;;;23.17;22.03;;;18.10;93.30;;;;;;5076547;28;20447;-64
2021/10/25 10:37:17;;;;;;;23.47;22.27;;;17.80;93.00;;;;;;5080401;28;20451;-61
2021/10/25 10:39:46;;;;;;;22.60;21.50;;;18.00;93.00;;;;;;5078859;28;20444;-64
2021/10/25 10:42:12;;;;;;;22.83;21.73;;;18.40;92.70;;;;;;5076090;28;20550;-61
2021/10/25 10:44:50;;;;;;;29.37;23.20;;;18.50;91.50;;;;;;5063179;28;20447;-65
2021/10/25 10:47:20;;;;;;;25.07;23.70;;;18.50;90.50;;;;;;5062323;28;20447;-62
2021/10/25 10:49:49;;;;;;;23.20;22.00;;;18.10;90.20;;;;;;5062220;28;20479;-63
2021/10/25 10:52:23;;;;;;;22.80;21.60;;;18.00;90.60;;;;;;5062199;28;20487;-63
2021/10/25 10:55:00;;;;;;;23.73;22.53;;;18.20;90.40;;;;;;5062286;28;20464;-64
2021/10/25 10:57:57;;;;;;;23.73;22.70;;;18.40;90.00;;;;;;5062324;28;20439;-63
2021/10/25 11:00:27;;;;;;;23.73;22.33;;;18.70;89.80;;;;;;5062177;28;20454;-67
2021/10/25 11:02:56;;;;;;;23.03;22.03;;;19.30;86.50;;;;;;5062017;28;20475;-63
2021/10/25 11:05:31;;;;;;;21.87;20.77;;;20.00;83.80;;;;;;5062249;28;20455;-62
2021/10/25 11:08:08;;;;;;;24.10;22.73;;;20.30;80.10;;;;;;5061773;28;21213;-63
2021/10/25 11:10:35;;;;;;;23.00;21.90;;;20.40;78.30;;;;;;5061558;28;20485;-64
2021/10/25 11:13:08;;;;;;;23.67;22.07;;;21.30;75.60;;;;;;5061402;28;20470;-63
2021/10/25 11:15:37;;;;;;;23.90;22.70;;;21.80;69.70;;;;;;5061238;28;20864;-63
2021/10/25 11:18:05;;;;;;;24.30;23.20;;;22.30;65.00;;;;;;5061300;28;20503;-64
2021/10/25 11:20:33;;;;;;;24.00;22.90;;;22.30;62.60;;;;;;5061341;28;20475;-64
2021/10/25 11:23:05;;;;;;;23.33;22.33;;;21.40;61.80;;;;;;5051981;28;21003;-63
2021/10/25 11:25:41;;;;;;;23.50;22.40;;;20.60;63.60;;;;;;5061560;28;20550;-64
2021/10/25 11:28:16;;;;;;;23.33;22.13;;;19.90;66.30;;;;;;5061118;28;20875;-65
2021/10/25 11:30:43;;;;;;;23.53;22.23;;;19.80;68.10;;;;;;5061236;28;20486;-63
2021/10/25 11:33:12;;;;;;;24.50;23.20;;;19.70;68.30;;;;;;5054232;28;21067;-64
2021/10/25 11:35:46;;;;;;;22.50;21.33;;;19.80;68.80;;;;;;5061272;28;20451;-64
2021/10/25 11:38:14;;;;;;;22.30;21.43;;;20.10;69.10;;;;;;5060824;28;20574;-64
2021/10/25 11:40:41;;;;;;;22.97;21.97;;;19.90;69.90;;;;;;5061086;28;20522;-64
2021/10/25 11:43:08;;;;;;;22.30;21.30;;;19.70;71.10;;;;;;5042217;28;20468;-63
2021/10/25 11:45:34;;;;;;;23.07;21.97;;;20.10;69.90;;;;;;5041356;28;20460;-63
2021/10/25 11:48:02;;;;;;;24.13;22.50;;;20.40;68.10;;;;;;5041207;28;20448;-64
2021/10/25 11:50:32;;;;;;;23.27;21.97;;;19.70;69.40;;;;;;5041058;28;20512;-62
2021/10/25 11:53:02;;;;;;;22.73;21.57;;;19.40;71.00;;;;;;5051371;28;20476;-63
2021/10/25 11:55:31;;;;;;;22.40;21.50;;;19.70;71.50;;;;;;5045431;28;20440;-62
2021/10/25 11:58:00;;;;;;;23.00;22.00;;;19.20;72.00;;;;;;5046825;28;20479;-62
2021/10/25 12:00:29;;;;;;;24.87;23.57;;;19.40;72.20;;;;;;5047760;28;21283;-62
2021/10/25 12:02:57;;;;;;;24.97;23.60;;;19.40;73.20;;;;;;5064335;28;20459;-62
2021/10/25 12:05:26;;;;;;;23.37;22.20;;;19.50;73.50;;;;;;5066123;28;20455;-62
2021/10/25 12:07:56;;;;;;;22.87;21.77;;;19.60;73.00;;;;;;5063797;28;20466;-63
2021/10/25 12:10:26;;;;;;;23.07;22.07;;;19.90;72.30;;;;;;5061137;28;21342;-63
2021/10/25 12:12:54;;;;;;;23.37;22.10;;;20.10;71.20;;;;;;5044757;28;20563;-64
2021/10/25 12:15:24;;;;;;;23.70;22.50;;;20.30;70.60;;;;;;5040932;28;20458;-64
2021/10/25 12:17:55;;;;;;;22.90;21.90;;;20.50;69.20;;;;;;5040630;28;21033;-64
2021/10/25 12:20:25;;;;;;;22.80;21.60;;;20.60;69.40;;;;;;5040561;28;20451;-63
2021/10/25 12:23:01;;;;;;;23.27;22.07;;;20.90;68.20;;;;;;5056548;28;20467;-63
2021/10/25 12:25:29;;;;;;;24.50;23.00;;;21.00;67.40;;;;;;5061013;28;21133;-63
2021/10/25 12:27:59;;;;;;;22.70;21.40;;;20.60;67.20;;;;;;5059686;28;20525;-62
2021/10/25 12:30:28;;;;;;;22.50;21.50;;;20.50;67.10;;;;;;5060492;28;20482;-63
2021/10/25 12:32:57;;;;;;;24.37;23.00;;;20.30;67.60;;;;;;5050166;28;20967;-61
2021/10/25 12:35:35;;;;;;;21.13;20.17;;;20.10;69.50;;;;;;5043565;28;20456;-61
2021/10/25 12:38:05;;;;;;;22.30;21.40;;;20.20;68.60;;;;;;5044199;28;20524;-62
2021/10/25 12:40:39;;;;;;;21.90;20.90;;;20.30;69.40;;;;;;5042946;28;20460;-63
2021/10/25 12:43:08;;;;;;;21.93;20.93;;;20.30;68.90;;;;;;5061527;28;20490;-63
2021/10/25 12:45:40;;;;;;;21.80;20.90;;;20.30;70.00;;;;;;5064495;28;20447;-63
2021/10/25 12:48:08;;;;;;;21.63;20.63;;;20.40;70.20;;;;;;5064393;28;20479;-62
2021/10/25 12:50:36;;;;;;;21.50;20.57;;;20.40;69.70;;;;;;5062538;28;20490;-63
2021/10/25 12:53:07;;;;;;;21.90;21.00;;;20.00;71.10;;;;;;5060909;28;20936;-62
2021/10/25 12:55:35;;;;;;;22.73;21.53;;;20.00;71.30;;;;;;5062451;28;20491;-63
2021/10/25 12:58:02;;;;;;;22.40;21.20;;;20.10;70.50;;;;;;5064483;28;20439;-63
2021/10/25 13:00:29;;;;;;;22.27;21.17;;;20.30;70.90;;;;;;5063650;28;20462;-63
2021/10/25 13:02:56;;;;;;;24.00;22.80;;;20.40;69.80;;;;;;5045647;28;20472;-65
2021/10/25 13:05:25;;;;;;;22.23;21.13;;;20.40;69.60;;;;;;5040344;28;20452;-64
2021/10/25 13:07:53;;;;;;;22.00;21.10;;;20.20;69.30;;;;;;5039894;28;20452;-65
2021/10/25 13:10:23;;;;;;;22.43;21.13;;;20.00;70.30;;;;;;5046815;28;20488;-63
2021/10/25 13:12:51;;;;;;;22.37;21.30;;;19.70;71.00;;;;;;5056622;28;20479;-64
2021/10/25 13:15:18;;;;;;;23.93;22.63;;;19.20;72.50;;;;;;5059988;28;20443;-62
2021/10/25 13:17:45;;;;;;;23.13;21.73;;;19.00;72.90;;;;;;5061848;28;20482;-61
2021/10/25 13:20:14;;;;;;;21.83;20.90;;;18.80;75.60;;;;;;5065317;28;20448;-63
2021/10/25 13:22:41;;;;;;;22.83;21.80;;;18.50;76.70;;;;;;5064394;28;20481;-63
2021/10/25 13:25:08;;;;;;;22.30;21.07;;;18.40;79.60;;;;;;5050753;28;20467;-63
2021/10/25 13:27:37;;;;;;;22.40;21.30;;;18.40;81.00;;;;;;5044708;28;20444;-63
2021/10/25 13:30:05;;;;;;;22.97;21.77;;;18.30;81.70;;;;;;5045711;28;20997;-63
2021/10/25 13:32:32;;;;;;;22.40;21.20;;;18.40;81.90;;;;;;5049562;28;20783;-63
2021/10/25 13:34:59;;;;;;;22.40;21.50;;;18.30;83.30;;;;;;5065951;28;21244;-64
2021/10/25 13:37:26;;;;;;;22.37;21.10;;;18.10;83.40;;;;;;5065546;28;21342;-63
2021/10/25 13:39:53;;;;;;;22.47;21.40;;;18.00;84.60;;;;;;5067092;28;20447;-63
2021/10/25 13:42:20;;;;;;;22.90;21.73;;;17.90;86.80;;;;;;5059457;28;20478;-63
2021/10/25 13:44:48;;;;;;;22.10;21.00;;;17.80;87.70;;;;;;5043601;28;20448;-64
2021/10/25 13:47:15;;;;;;;21.63;20.43;;;17.80;88.60;;;;;;5043479;28;20950;-65
2021/10/25 13:49:43;;;;;;;21.90;20.80;;;17.80;90.40;;;;;;5042950;28;20580;-63
2021/10/25 13:52:10;;;;;;;21.90;20.80;;;17.70;91.50;;;;;;5043034;28;20490;-64